createdAt,value
2019-04-11T00:00:29.724Z,11.52
2019-04-11T00:02:30.913Z,11.52
2019-04-11T00:06:29.812Z,11.47
2019-04-11T00:08:35.439Z,11.43
2019-04-11T00:12:30.513Z,11.40
2019-04-11T00:14:29.739Z,11.40
2019-04-11T00:18:30.371Z,11.38
2019-04-11T00:20:35.958Z,11.32
2019-04-11T00:24:34.599Z,11.31
2019-04-11T00:26:34.421Z,11.30
2019-04-11T00:30:30.316Z,11.25
2019-04-11T00:32:29.751Z,11.28
2019-04-11T00:36:30.533Z,11.22
2019-04-11T00:38:34.569Z,11.22
2019-04-11T00:42:34.610Z,11.19
2019-04-11T00:44:30.621Z,11.19
2019-04-11T00:48:30.059Z,11.14
2019-04-11T00:50:30.101Z,11.09
2019-04-11T00:54:30.942Z,11.10
2019-04-11T00:56:30.490Z,11.09
2019-04-11T01:00:29.745Z,11.04
2019-04-11T01:02:29.743Z,11.04
2019-04-11T01:06:30.076Z,11.01
2019-04-11T01:08:29.785Z,11.01
2019-04-11T01:12:29.761Z,10.98
2019-04-11T01:14:29.996Z,10.97
2019-04-11T01:18:29.912Z,10.93
2019-04-11T01:20:34.285Z,10.91
2019-04-11T01:24:29.754Z,10.90
2019-04-11T01:26:34.990Z,10.89
2019-04-11T01:30:30.651Z,10.83
2019-04-11T01:32:30.560Z,10.81
2019-04-11T01:36:35.354Z,10.80
2019-04-11T01:38:30.487Z,10.79
2019-04-11T01:42:29.793Z,10.77
2019-04-11T01:44:34.144Z,10.75
2019-04-11T01:48:29.778Z,10.69
2019-04-11T01:50:29.809Z,10.71
2019-04-11T01:54:30.019Z,10.68
2019-04-11T01:56:29.773Z,10.65
2019-04-11T02:00:30.160Z,10.66
2019-04-11T02:02:30.611Z,10.64
2019-04-11T02:06:34.745Z,10.55
2019-04-11T02:08:35.476Z,10.58
2019-04-11T02:12:30.956Z,10.55
2019-04-11T02:14:29.780Z,10.52
2019-04-11T02:18:29.805Z,10.52
2019-04-11T02:20:29.772Z,10.49
2019-04-11T02:24:30.073Z,10.43
2019-04-11T02:26:35.656Z,10.45
2019-04-11T02:30:30.709Z,10.41
2019-04-11T02:32:29.788Z,10.38
2019-04-11T02:36:32.215Z,10.39
2019-04-11T02:38:30.547Z,10.35
2019-04-11T02:42:30.684Z,10.32
2019-04-11T02:44:46.081Z,10.32
2019-04-11T02:48:31.081Z,10.30
2019-04-11T02:50:36.606Z,10.29
2019-04-11T02:54:30.594Z,10.27
2019-04-11T02:56:35.748Z,10.24
2019-04-11T03:00:30.934Z,10.20
2019-04-11T03:02:30.815Z,10.21
2019-04-11T03:06:30.920Z,10.15
2019-04-11T03:08:31.936Z,10.17
2019-04-11T03:12:31.653Z,10.12
2019-04-11T03:14:51.828Z,10.10
2019-04-11T03:18:45.796Z,10.06
2019-04-11T03:20:37.135Z,10.07
2019-04-11T03:24:31.599Z,10.05
2019-04-11T03:26:35.553Z,10.03
2019-04-11T03:30:46.495Z,10.00
2019-04-11T03:33:18.529Z,9.98
2019-04-11T03:37:15.585Z,9.94
2019-04-11T03:42:38.059Z,9.92
2019-04-11T03:44:36.895Z,9.90
2019-04-11T03:48:43.754Z,9.89
2019-04-11T03:50:32.152Z,9.89
2019-04-11T03:54:36.723Z,9.85
2019-04-11T03:56:29.802Z,9.85
2019-04-11T04:00:37.170Z,9.81
2019-04-11T04:02:34.950Z,9.81
2019-04-11T04:06:31.048Z,9.75
2019-04-11T04:08:31.381Z,9.76
2019-04-11T04:12:31.306Z,9.73
2019-04-11T04:14:36.923Z,9.69
2019-04-11T04:18:36.094Z,9.70
2019-04-11T04:20:35.218Z,9.69
2019-04-11T04:24:32.123Z,9.68
2019-04-11T04:26:31.227Z,9.63
2019-04-11T04:30:29.977Z,9.63
2019-04-11T04:32:30.407Z,9.59
2019-04-11T04:36:30.883Z,9.59
2019-04-11T04:38:35.525Z,9.58
2019-04-11T04:42:40.202Z,9.53
2019-04-11T04:44:31.575Z,9.52
2019-04-11T04:48:31.368Z,9.50
2019-04-11T04:50:30.966Z,9.46
2019-04-11T04:54:30.752Z,9.45
2019-04-11T04:56:31.789Z,9.42
2019-04-11T05:00:31.995Z,9.39
2019-04-11T05:02:30.574Z,9.41
2019-04-11T05:06:29.819Z,9.40
2019-04-11T05:08:30.548Z,9.36
2019-04-11T05:12:30.892Z,9.32
2019-04-11T05:14:31.458Z,9.34
2019-04-11T05:18:30.161Z,9.28
2019-04-11T05:20:34.567Z,9.31
2019-04-11T05:24:34.880Z,9.28
2019-04-11T05:26:29.860Z,9.27
2019-04-11T05:30:29.878Z,9.24
2019-04-11T05:32:29.901Z,9.22
2019-04-11T05:36:38.847Z,9.21
2019-04-11T05:38:38.957Z,9.19
2019-04-11T05:42:29.848Z,9.16
2019-04-11T05:44:30.567Z,9.15
2019-04-11T05:48:30.528Z,9.13
2019-04-11T05:50:34.245Z,9.16
2019-04-11T05:54:29.853Z,9.10
2019-04-11T05:56:30.007Z,9.10
2019-04-11T06:00:30.715Z,9.07
2019-04-11T06:02:29.876Z,9.06
2019-04-11T06:06:36.128Z,9.04
2019-04-11T06:08:30.760Z,9.04
2019-04-11T06:12:29.854Z,9.03
2019-04-11T06:14:29.866Z,9.00
2019-04-11T06:18:33.183Z,8.99
2019-04-11T06:20:29.868Z,9.00
2019-04-11T06:24:30.049Z,8.97
2019-04-11T06:26:38.674Z,8.96
2019-04-11T06:30:30.496Z,8.96
2019-04-11T06:32:29.969Z,8.95
2019-04-11T06:36:30.145Z,8.91
2019-04-11T06:38:30.304Z,8.92
2019-04-11T06:42:30.175Z,8.95
2019-04-11T06:44:35.087Z,8.92
2019-04-11T06:48:29.866Z,8.89
2019-04-11T06:50:29.899Z,8.91
2019-04-11T06:54:30.741Z,8.93
2019-04-11T06:56:29.889Z,8.94
2019-04-11T07:00:39.064Z,8.92
2019-04-11T07:02:32.631Z,8.90
2019-04-11T07:06:29.898Z,8.92
2019-04-11T07:08:30.074Z,8.91
2019-04-11T07:12:30.767Z,8.97
2019-04-11T07:14:31.124Z,8.97
2019-04-11T07:18:35.720Z,9.00
2019-04-11T07:20:35.627Z,9.01
2019-04-11T07:24:30.357Z,9.04
2019-04-11T07:26:29.884Z,9.06
2019-04-11T07:30:31.018Z,9.05
2019-04-11T07:32:34.243Z,9.07
2019-04-11T07:36:29.881Z,9.09
2019-04-11T07:38:29.906Z,9.09
2019-04-11T07:42:30.946Z,9.15
2019-04-11T07:44:30.593Z,9.17
2019-04-11T07:48:29.904Z,9.19
2019-04-11T07:50:30.859Z,9.21
2019-04-11T07:54:30.313Z,9.22
2019-04-11T07:56:29.897Z,9.26
2019-04-11T08:00:38.592Z,9.30
2019-04-11T08:02:35.558Z,9.33
2019-04-11T08:06:30.973Z,9.38
2019-04-11T08:08:30.262Z,9.41
2019-04-11T08:12:29.906Z,9.45
2019-04-11T08:14:34.856Z,9.46
2019-04-11T08:18:29.894Z,9.54
2019-04-11T08:20:31.135Z,9.54
2019-04-11T08:24:30.101Z,9.60
2019-04-11T08:26:39.108Z,9.65
2019-04-11T08:30:30.864Z,9.71
2019-04-11T08:32:31.052Z,9.73
2019-04-11T08:36:34.915Z,9.81
2019-04-11T08:38:29.915Z,9.85
2019-04-11T08:44:30.046Z,9.92
2019-04-11T08:46:30.965Z,9.96
2019-04-11T08:50:34.921Z,10.02
2019-04-11T08:52:29.924Z,10.04
2019-04-11T08:56:29.911Z,10.10
2019-04-11T08:58:34.586Z,10.12
2019-04-11T09:02:31.045Z,10.19
2019-04-11T09:04:34.406Z,10.24
2019-04-11T09:08:30.146Z,10.30
2019-04-11T09:10:29.935Z,10.35
2019-04-11T09:14:30.473Z,10.39
2019-04-11T09:16:29.931Z,10.42
2019-04-11T09:20:29.963Z,10.47
2019-04-11T09:22:39.368Z,10.52
2019-04-11T09:26:29.909Z,10.56
2019-04-11T09:28:35.647Z,10.60
2019-04-11T09:32:29.920Z,10.65
2019-04-11T09:34:30.272Z,10.68
2019-04-11T09:38:30.587Z,10.74
2019-04-11T09:40:29.988Z,10.77
2019-04-11T09:44:35.082Z,10.81
2019-04-11T09:46:30.309Z,10.83
2019-04-11T09:50:29.966Z,10.88
2019-04-11T09:52:30.890Z,10.88
2019-04-11T09:56:36.197Z,10.93
2019-04-11T09:58:29.953Z,10.96
2019-04-11T10:02:33.318Z,11.03
2019-04-11T10:04:36.002Z,11.06
2019-04-11T10:08:30.933Z,11.15
2019-04-11T10:10:29.945Z,11.18
2019-04-11T10:14:31.395Z,11.24
2019-04-11T10:16:31.794Z,11.26
2019-04-11T10:20:30.814Z,11.28
2019-04-11T10:22:29.939Z,11.30
2019-04-11T10:26:29.958Z,11.33
2019-04-11T10:28:31.334Z,11.33
2019-04-11T10:32:30.669Z,11.39
2019-04-11T10:34:30.013Z,11.42
2019-04-11T10:38:36.166Z,11.51
2019-04-11T10:40:30.264Z,11.55
2019-04-11T10:44:29.972Z,11.60
2019-04-11T10:46:29.954Z,11.64
2019-04-11T10:50:29.975Z,11.71
2019-04-11T10:52:30.775Z,11.74
2019-04-11T10:56:30.579Z,11.80
2019-04-11T10:58:30.936Z,11.83
2019-04-11T11:02:29.962Z,11.91
2019-04-11T11:04:34.788Z,11.95
2019-04-11T11:08:31.125Z,12.01
2019-04-11T11:10:31.189Z,12.04
2019-04-11T11:14:32.165Z,12.12
2019-04-11T11:16:30.565Z,12.15
2019-04-11T11:20:34.661Z,12.22
2019-04-11T11:22:32.272Z,12.29
2019-04-11T11:26:32.043Z,12.32
2019-04-11T11:28:30.162Z,12.34
2019-04-11T11:32:29.972Z,12.43
2019-04-11T11:34:30.560Z,12.44
2019-04-11T11:38:30.312Z,12.48
2019-04-11T11:40:30.038Z,12.52
2019-04-11T11:44:30.838Z,12.55
2019-04-11T11:46:31.522Z,12.59
2019-04-11T11:50:32.688Z,12.60
2019-04-11T11:52:36.050Z,12.64
2019-04-11T11:56:29.999Z,12.66
2019-04-11T11:58:35.365Z,12.68
2019-04-11T12:02:30.590Z,12.70
2019-04-11T12:04:36.433Z,12.72
2019-04-11T12:08:30.814Z,12.75
2019-04-11T12:10:32.351Z,12.73
2019-04-11T12:14:42.118Z,12.76
2019-04-11T12:16:34.748Z,12.77
2019-04-11T12:20:31.133Z,12.79
2019-04-11T12:22:30.670Z,12.78
2019-04-11T12:26:33.270Z,12.83
2019-04-11T12:28:30.003Z,12.86
2019-04-11T12:32:34.642Z,12.89
2019-04-11T12:34:30.294Z,12.91
2019-04-11T12:38:30.046Z,12.92
2019-04-11T12:40:30.004Z,12.92
2019-04-11T12:44:30.333Z,12.93
2019-04-11T12:46:34.501Z,12.94
2019-04-11T12:50:30.006Z,12.95
2019-04-11T12:52:30.008Z,12.96
2019-04-11T12:56:40.651Z,12.99
2019-04-11T12:58:30.859Z,12.98
2019-04-11T13:02:30.043Z,13.01
2019-04-11T13:04:30.024Z,13.02
2019-04-11T13:08:30.040Z,13.04
2019-04-11T13:10:34.422Z,13.05
2019-04-11T13:14:30.059Z,13.06
2019-04-11T13:16:30.043Z,13.09
2019-04-11T13:20:30.019Z,13.11
2019-04-11T13:22:35.197Z,13.13
2019-04-11T13:26:34.424Z,13.14
2019-04-11T13:28:32.078Z,13.15
2019-04-11T13:32:30.026Z,13.15
2019-04-11T13:34:30.072Z,13.15
2019-04-11T13:38:30.066Z,13.16
2019-04-11T13:40:35.222Z,13.16
2019-04-11T13:44:31.159Z,13.17
2019-04-11T13:46:30.046Z,13.19
2019-04-11T13:50:30.149Z,13.19
2019-04-11T13:52:30.032Z,13.19
2019-04-11T13:56:31.128Z,13.21
2019-04-11T13:58:35.024Z,13.21
2019-04-11T14:02:30.055Z,13.23
2019-04-11T14:04:30.059Z,13.22
2019-04-11T14:10:31.768Z,13.23
2019-04-11T14:12:33.317Z,13.24
2019-04-11T14:16:30.075Z,13.25
2019-04-11T14:18:35.222Z,13.26
2019-04-11T14:22:30.201Z,13.25
2019-04-11T14:24:35.076Z,13.25
2019-04-11T14:28:30.272Z,13.26
2019-04-11T14:30:30.077Z,13.25
2019-04-11T14:34:34.281Z,13.27
2019-04-11T14:36:33.446Z,13.26
2019-04-11T14:40:30.150Z,13.27
2019-04-11T14:42:35.237Z,13.27
2019-04-11T14:46:36.678Z,13.27
2019-04-11T14:48:34.824Z,13.28
2019-04-11T14:52:30.066Z,13.28
2019-04-11T14:54:30.072Z,13.28
2019-04-11T14:58:30.217Z,13.29
2019-04-11T15:00:35.361Z,13.28
2019-04-11T15:04:30.169Z,13.28
2019-04-11T15:06:34.836Z,13.28
2019-04-11T15:10:37.908Z,13.28
2019-04-11T15:12:30.069Z,13.28
2019-04-11T15:16:30.118Z,13.29
2019-04-11T15:18:34.746Z,13.29
2019-04-11T15:22:30.159Z,13.29
2019-04-11T15:24:30.277Z,13.28
2019-04-11T15:28:35.281Z,13.29
2019-04-11T15:30:35.297Z,13.29
2019-04-11T15:34:30.137Z,13.28
2019-04-11T15:36:30.247Z,13.28
2019-04-11T15:40:30.195Z,13.29
2019-04-11T15:42:32.769Z,13.29
2019-04-11T15:46:35.269Z,13.28
2019-04-11T15:48:35.117Z,13.28
2019-04-11T15:52:37.021Z,13.28
2019-04-11T15:54:32.169Z,13.28
2019-04-11T15:58:30.254Z,13.27
2019-04-11T16:00:30.213Z,13.28
2019-04-11T16:04:30.285Z,13.27
2019-04-11T16:06:38.747Z,13.27
2019-04-11T16:10:30.299Z,13.25
2019-04-11T16:12:34.414Z,13.25
2019-04-11T16:16:31.074Z,13.24
2019-04-11T16:18:30.106Z,13.24
2019-04-11T16:22:35.310Z,13.24
2019-04-11T16:24:33.151Z,13.23
2019-04-11T16:28:30.272Z,13.23
2019-04-11T16:30:30.193Z,13.23
2019-04-11T16:34:30.126Z,13.23
2019-04-11T16:36:35.136Z,13.20
2019-04-11T16:40:30.234Z,13.21
2019-04-11T16:42:35.132Z,13.21
2019-04-11T16:46:30.294Z,13.19
2019-04-11T16:48:30.144Z,13.19
2019-04-11T16:52:33.037Z,13.18
2019-04-11T16:54:30.110Z,13.18
2019-04-11T16:58:30.267Z,13.16
2019-04-11T17:00:35.122Z,13.16
2019-04-11T17:04:35.291Z,13.15
2019-04-11T17:06:35.149Z,13.15
2019-04-11T17:10:31.233Z,13.13
2019-04-11T17:12:30.199Z,13.13
2019-04-11T17:16:33.948Z,13.11
2019-04-11T17:18:35.310Z,13.10
2019-04-11T17:22:32.514Z,13.10
2019-04-11T17:24:35.295Z,13.08
2019-04-11T17:28:34.072Z,13.06
2019-04-11T17:30:30.141Z,13.06
2019-04-11T17:34:33.978Z,13.05
2019-04-11T17:36:35.102Z,13.03
2019-04-11T17:40:35.063Z,13.01
2019-04-11T17:42:36.935Z,13.01
2019-04-11T17:46:33.090Z,13.00
2019-04-11T17:48:30.115Z,12.98
2019-04-11T17:52:31.078Z,12.96
2019-04-11T17:54:31.238Z,12.95
2019-04-11T17:58:35.190Z,12.93
2019-04-11T18:00:30.660Z,12.92
2019-04-11T18:04:34.876Z,12.92
2019-04-11T18:06:30.337Z,12.90
2019-04-11T18:10:30.355Z,12.87
2019-04-11T18:12:30.123Z,12.87
2019-04-11T18:16:31.668Z,12.85
2019-04-11T18:18:34.947Z,12.84
2019-04-11T18:22:30.136Z,12.82
2019-04-11T18:24:30.176Z,12.81
2019-04-11T18:28:31.072Z,12.79
2019-04-11T18:30:33.796Z,12.77
2019-04-11T18:34:31.871Z,12.75
2019-04-11T18:36:32.063Z,12.74
2019-04-11T18:40:30.130Z,12.70
2019-04-11T18:42:30.168Z,12.70
2019-04-11T18:46:30.168Z,12.67
2019-04-11T18:48:35.199Z,12.66
2019-04-11T18:52:30.159Z,12.64
2019-04-11T18:54:33.908Z,12.62
2019-04-11T18:58:33.683Z,12.58
2019-04-11T19:00:30.162Z,12.61
2019-04-11T19:04:32.675Z,12.56
2019-04-11T19:06:32.649Z,12.53
2019-04-11T19:10:30.146Z,12.52
2019-04-11T19:12:30.163Z,12.50
2019-04-11T19:16:30.197Z,12.46
2019-04-11T19:18:32.618Z,12.45
2019-04-11T19:22:37.406Z,12.43
2019-04-11T19:24:35.385Z,12.41
2019-04-11T19:28:30.156Z,12.38
2019-04-11T19:30:30.167Z,12.37
2019-04-11T19:34:30.165Z,12.35
2019-04-11T19:36:30.179Z,12.34
2019-04-11T19:40:30.566Z,12.33
2019-04-11T19:42:35.200Z,12.31
2019-04-11T19:46:30.162Z,12.29
2019-04-11T19:48:35.093Z,12.29
2019-04-11T19:52:32.223Z,12.26
2019-04-11T19:54:35.115Z,12.25
2019-04-11T19:58:30.170Z,12.23
2019-04-11T20:00:34.840Z,12.22
2019-04-11T20:04:30.196Z,12.19
2019-04-11T20:06:34.761Z,12.18
2019-04-11T20:10:35.198Z,12.13
2019-04-11T20:12:30.727Z,12.14
2019-04-11T20:16:41.049Z,12.11
2019-04-11T20:18:50.244Z,12.10
2019-04-11T20:22:39.259Z,12.07
2019-04-11T20:24:30.205Z,12.03
2019-04-11T20:28:30.210Z,12.03
2019-04-11T20:30:35.030Z,12.02
2019-04-11T20:34:30.183Z,12.00
2019-04-11T20:36:34.643Z,11.98
2019-04-11T20:40:30.215Z,11.95
2019-04-11T20:42:30.216Z,11.94
2019-04-11T20:46:30.193Z,11.92
2019-04-11T20:48:35.334Z,11.91
2019-04-11T20:52:30.191Z,11.88
2019-04-11T20:54:31.078Z,11.88
2019-04-11T20:58:30.209Z,11.86
2019-04-11T21:00:30.227Z,11.85
2019-04-11T21:04:34.818Z,11.82
2019-04-11T21:06:32.065Z,11.80
2019-04-11T21:10:31.959Z,11.78
2019-04-11T21:12:30.216Z,11.77
2019-04-11T21:16:30.238Z,11.75
2019-04-11T21:18:30.235Z,11.74
2019-04-11T21:24:30.931Z,11.71
2019-04-11T21:26:30.215Z,11.69
2019-04-11T21:32:31.839Z,11.67
2019-04-11T21:34:32.247Z,11.66
2019-04-11T21:38:30.929Z,11.63
2019-04-11T21:40:39.194Z,11.62
2019-04-11T21:44:30.245Z,11.61
2019-04-11T21:46:31.575Z,11.59
2019-04-11T21:50:30.229Z,11.60
2019-04-11T21:52:32.226Z,11.58
2019-04-11T21:56:30.209Z,11.56
2019-04-11T21:58:30.240Z,11.55
2019-04-11T22:02:30.247Z,11.52
2019-04-11T22:04:35.271Z,11.53
2019-04-11T22:08:31.992Z,11.48
2019-04-11T22:10:35.217Z,11.49
2019-04-11T22:14:30.251Z,11.49
2019-04-11T22:18:30.282Z,11.47
2019-04-11T22:20:35.325Z,11.47
2019-04-11T22:24:34.799Z,11.43
2019-04-11T22:26:34.609Z,11.43
2019-04-11T22:30:30.235Z,11.42
2019-04-11T22:32:30.256Z,11.40
2019-04-11T22:36:30.806Z,11.39
2019-04-11T22:38:30.978Z,11.38
2019-04-11T22:42:30.257Z,11.37
2019-04-11T22:44:35.549Z,11.37
2019-04-11T22:48:30.256Z,11.35
2019-04-11T22:50:30.251Z,11.35
2019-04-11T22:54:35.237Z,11.31
2019-04-11T22:56:36.943Z,11.32
2019-04-11T23:00:30.248Z,11.29
2019-04-11T23:02:30.252Z,11.29
2019-04-11T23:06:30.265Z,11.27
2019-04-11T23:08:30.259Z,11.25
2019-04-11T23:12:30.255Z,11.25
2019-04-11T23:14:30.248Z,11.25
2019-04-11T23:18:30.249Z,11.23
2019-04-11T23:20:30.255Z,11.22
2019-04-11T23:24:30.262Z,11.20
2019-04-11T23:26:30.268Z,11.21
2019-04-11T23:30:35.440Z,11.18
2019-04-11T23:32:40.130Z,11.18
2019-04-11T23:36:35.240Z,11.18
2019-04-11T23:38:30.277Z,11.16
2019-04-11T23:42:30.266Z,11.13
2019-04-11T23:44:30.266Z,11.13
2019-04-11T23:48:34.908Z,11.09
2019-04-11T23:50:32.455Z,11.08
2019-04-11T23:54:30.283Z,11.08
2019-04-11T23:56:30.696Z,11.08
